Time;durP1;ratioP1;P1;durP2;ratioP2;P2;SDS_P1;SDS_P2;PMS_P1;PMS_P2;Temp;Humidity;BMP_temperature;BMP_pressure;BME280_temperature;BME280_humidity;BME280_pressure;Samples;Min_cycle;Max_cycle;Signal;HPM_P1;HPM_P2
2022/02/22 00:01:42;;;;;;;20.50;10.77;;;;;;;10.54;49.97;92644.81;4989996;28;20099;-79
2022/02/22 00:04:07;;;;;;;15.07;8.32;;;;;;;10.69;48.92;92630.78;4981305;28;20045;-79
2022/02/22 00:06:33;;;;;;;26.92;12.50;;;;;;;10.81;48.80;92617.38;4984481;28;20073;-77
2022/02/22 00:08:59;;;;;;;23.25;12.77;;;;;;;10.82;48.63;92597.66;4983351;28;20046;-79
2022/02/22 00:11:25;;;;;;;16.23;11.00;;;;;;;10.93;48.47;92619.19;4987385;28;20688;-79
2022/02/22 00:13:52;;;;;;;16.33;9.18;;;;;;;11.04;47.96;92609.59;4988760;28;20045;-77
2022/02/22 00:16:17;;;;;;;10.63;7.18;;;;;;;11.34;47.64;92624.00;4987931;28;20521;-78
2022/02/22 00:18:43;;;;;;;10.18;7.53;;;;;;;11.45;47.04;92622.31;4991112;28;20049;-80
2022/02/22 00:21:08;;;;;;;17.05;8.50;;;;;;;11.47;47.09;92612.13;4979098;28;20679;-77
2022/02/22 00:23:34;;;;;;;14.38;9.20;;;;;;;11.59;46.74;92616.56;5017734;28;20068;-79
2022/02/22 00:26:05;;;;;;;17.55;9.40;;;;;;;11.66;46.66;92607.97;4975792;28;20030;-79
2022/02/22 00:28:30;;;;;;;12.98;8.23;;;;;;;11.71;46.90;92610.34;4987524;28;20030;-78
2022/02/22 00:30:56;;;;;;;14.18;6.82;;;;;;;11.48;46.34;92567.63;4983566;28;20045;-78
2022/02/22 00:33:21;;;;;;;9.77;7.45;;;;;;;11.75;46.28;92598.66;4977502;28;20045;-79
2022/02/22 00:35:47;;;;;;;19.15;10.82;;;;;;;11.80;45.87;92602.94;4986895;28;20579;-80
2022/02/22 00:38:12;;;;;;;18.00;11.45;;;;;;;11.69;46.51;92608.03;4978848;28;20041;-79
2022/02/22 00:40:37;;;;;;;18.23;10.90;;;;;;;11.84;45.87;92609.88;4986546;28;20033;-78
2022/02/22 00:43:03;;;;;;;16.27;10.18;;;;;;;11.72;46.10;92620.66;4981993;28;20564;-79
2022/02/22 00:45:29;;;;;;;17.90;10.70;;;;;;;11.63;46.40;92595.38;4991523;28;20026;-78
2022/02/22 00:47:54;;;;;;;30.45;16.17;;;;;;;11.10;46.43;92542.47;4993111;28;20042;-78
2022/02/22 00:50:19;;;;;;;33.05;18.98;;;;;;;11.49;46.98;92625.09;4979393;28;20034;-78
2022/02/22 00:52:45;;;;;;;17.88;10.93;;;;;;;11.41;47.20;92612.72;4981154;28;21113;-77
2022/02/22 00:55:11;;;;;;;19.17;10.15;;;;;;;11.31;47.60;92622.00;4988329;28;20096;-77
2022/02/22 00:57:37;;;;;;;16.50;10.57;;;;;;;11.01;47.89;92589.00;4987169;28;20057;-77
2022/02/22 01:00:06;;;;;;;17.20;9.82;;;;;;;11.06;48.08;92594.81;4990511;28;20060;-78
2022/02/22 01:02:36;;;;;;;10.82;8.30;;;;;;;11.17;48.25;92595.84;4982688;28;20441;-78
2022/02/22 01:05:02;;;;;;;31.40;15.10;;;;;;;11.20;48.19;92594.38;4987057;28;20030;-78
2022/02/22 01:07:27;;;;;;;49.50;18.73;;;;;;;11.17;48.35;92598.50;4985652;28;20381;-78
2022/02/22 01:09:53;;;;;;;26.98;16.65;;;;;;;10.34;50.04;92558.84;4988096;28;20069;-79
2022/02/22 01:12:18;;;;;;;15.73;11.23;;;;;;;10.50;50.15;92590.78;4978508;28;20073;-77
2022/02/22 01:14:45;;;;;;;16.77;10.70;;;;;;;10.60;50.41;92587.63;4989912;28;20117;-77
2022/02/22 01:17:11;;;;;;;16.02;9.75;;;;;;;10.58;50.03;92577.31;4986629;28;20133;-77
2022/02/22 01:19:36;;;;;;;16.83;8.90;;;;;;;10.69;49.56;92593.56;4989226;28;20041;-78
2022/02/22 01:22:02;;;;;;;13.65;9.00;;;;;;;10.65;50.02;92603.31;4980792;28;20062;-77
2022/02/22 01:24:28;;;;;;;13.40;8.07;;;;;;;10.48;50.31;92587.69;4984074;28;20040;-79
2022/02/22 01:26:53;;;;;;;13.02;6.82;;;;;;;10.68;50.41;92592.00;4976682;28;20105;-80
2022/02/22 01:29:19;;;;;;;11.57;6.93;;;;;;;10.81;50.12;92601.44;4990732;28;20042;-78
2022/02/22 01:31:45;;;;;;;10.20;6.57;;;;;;;10.65;50.40;92579.41;4974835;28;20438;-78
2022/02/22 01:34:16;;;;;;;13.15;8.27;;;;;;;10.33;51.32;92595.28;4988069;28;20089;-78
2022/02/22 01:36:42;;;;;;;14.85;9.02;;;;;;;10.67;51.05;92595.75;4988904;28;20666;-77
2022/02/22 01:39:07;;;;;;;19.88;9.75;;;;;;;10.84;50.54;92590.13;4986588;28;21011;-78
2022/02/22 01:41:39;;;;;;;16.38;10.32;;;;;;;10.96;49.92;92583.91;4986505;28;20037;-78
2022/02/22 01:44:08;;;;;;;13.02;9.77;;;;;;;11.17;49.68;92590.53;4979039;28;20021;-78
2022/02/22 01:46:33;;;;;;;15.98;10.88;;;;;;;10.12;49.37;92437.97;4986578;28;20076;-78
2022/02/22 01:48:59;;;;;;;16.38;10.88;;;;;;;10.94;49.86;92584.28;4987968;28;20046;-79
2022/02/22 01:51:25;;;;;;;15.13;11.15;;;;;;;11.02;49.59;92588.66;4980092;28;20484;-78
2022/02/22 01:53:50;;;;;;;17.48;11.85;;;;;;;11.00;49.73;92612.16;4980035;28;20038;-78
2022/02/22 01:56:17;;;;;;;16.77;11.35;;;;;;;10.96;50.04;92619.28;4972539;28;20592;-77
2022/02/22 01:58:43;;;;;;;14.43;10.70;;;;;;;10.92;50.25;92605.13;4989176;28;20061;-78
2022/02/22 02:01:09;;;;;;;19.85;10.82;;;;;;;10.62;50.01;92558.78;4979945;28;20038;-78
2022/02/22 02:03:35;;;;;;;15.95;11.50;;;;;;;10.86;49.85;92609.16;4979684;28;20045;-77
2022/02/22 02:06:00;;;;;;;19.10;12.65;;;;;;;10.65;50.24;92588.16;4982806;28;20050;-78
2022/02/22 02:08:26;;;;;;;20.17;11.50;;;;;;;10.71;50.70;92612.56;4974540;28;20156;-79
2022/02/22 02:10:51;;;;;;;21.10;11.63;;;;;;;10.74;50.93;92628.63;4984033;28;20053;-78
2022/02/22 02:13:17;;;;;;;19.05;11.55;;;;;;;10.53;51.13;92604.16;4981855;28;20496;-79
2022/02/22 02:15:42;;;;;;;17.42;11.18;;;;;;;10.65;51.16;92622.72;4977117;28;20034;-79
2022/02/22 02:18:07;;;;;;;17.73;12.60;;;;;;;10.30;51.60;92572.03;4986919;28;20080;-78
2022/02/22 02:20:33;;;;;;;23.85;12.20;;;;;;;10.16;52.11;92587.63;4983213;28;20125;-77
2022/02/22 02:22:58;;;;;;;19.90;11.82;;;;;;;10.49;52.33;92621.13;4986205;28;20030;-76
2022/02/22 02:25:24;;;;;;;22.13;13.63;;;;;;;10.45;52.48;92620.28;4987075;28;20099;-78
2022/02/22 02:27:49;;;;;;;16.55;11.50;;;;;;;10.36;52.25;92601.84;4995260;28;20048;-77
2022/02/22 02:30:15;;;;;;;17.38;11.13;;;;;;;10.56;52.19;92622.06;5004679;28;20043;-78
2022/02/22 02:32:41;;;;;;;19.48;12.27;;;;;;;10.85;51.73;92626.25;5000187;28;20064;-78
2022/02/22 02:35:08;;;;;;;20.88;11.70;;;;;;;10.76;51.58;92614.97;5004626;28;20479;-78
2022/02/22 02:37:35;;;;;;;19.60;11.23;;;;;;;10.83;51.52;92609.06;5001483;28;20488;-79
2022/02/22 02:40:03;;;;;;;18.45;11.30;;;;;;;10.59;51.64;92596.72;4995011;28;20037;-78
2022/02/22 02:42:29;;;;;;;21.77;13.05;;;;;;;10.61;51.88;92621.09;5001816;28;20068;-79
2022/02/22 02:44:54;;;;;;;22.27;14.35;;;;;;;10.51;51.82;92611.72;4991941;28;20793;-79
2022/02/22 02:47:20;;;;;;;16.70;11.73;;;;;;;10.50;52.08;92602.19;5009533;28;20124;-77
2022/02/22 02:49:45;;;;;;;23.85;11.32;;;;;;;10.63;51.87;92603.66;5002921;28;20518;-79
2022/02/22 02:52:11;;;;;;;19.58;11.50;;;;;;;10.58;51.89;92619.09;5011246;28;20049;-77
2022/02/22 02:54:37;;;;;;;21.80;10.70;;;;;;;10.45;52.39;92612.31;5007627;28;20033;-77
2022/02/22 02:57:03;;;;;;;17.90;11.95;;;;;;;10.35;52.66;92615.41;4996470;28;20069;-77
2022/02/22 02:59:29;;;;;;;22.92;12.10;;;;;;;10.24;53.04;92615.91;5003357;28;20038;-78
2022/02/22 03:01:55;;;;;;;18.80;10.60;;;;;;;10.40;52.71;92615.97;5000300;28;20028;-77
2022/02/22 03:04:20;;;;;;;19.73;10.60;;;;;;;10.43;52.44;92609.19;4999573;28;20555;-77
2022/02/22 03:06:46;;;;;;;18.88;11.88;;;;;;;10.32;53.13;92604.34;5000558;28;20045;-78
2022/02/22 03:09:12;;;;;;;21.73;11.30;;;;;;;10.12;54.05;92618.59;5003035;28;20040;-78
2022/02/22 03:11:38;;;;;;;19.55;10.90;;;;;;;10.43;53.15;92617.16;4995017;28;20801;-78
2022/02/22 03:14:04;;;;;;;16.10;10.75;;;;;;;10.46;53.16;92613.84;5004070;28;20673;-77
2022/02/22 03:16:29;;;;;;;19.60;13.13;;;;;;;10.39;53.28;92621.63;5005698;28;20017;-78
2022/02/22 03:18:55;;;;;;;17.05;11.07;;;;;;;10.04;53.19;92558.44;4997867;28;20058;-77
2022/02/22 03:21:21;;;;;;;15.85;11.38;;;;;;;10.26;53.80;92624.31;4995429;28;20034;-78
2022/02/22 03:23:46;;;;;;;20.52;10.60;;;;;;;10.32;53.90;92622.94;4999990;28;20523;-78
2022/02/22 03:26:12;;;;;;;15.55;10.75;;;;;;;10.37;53.81;92623.88;4996926;28;20038;-77
2022/02/22 03:28:38;;;;;;;19.38;10.38;;;;;;;10.40;53.53;92613.31;5008876;28;20022;-77
2022/02/22 03:31:05;;;;;;;18.77;11.52;;;;;;;10.62;53.05;92619.94;5005673;28;20069;-79
2022/02/22 03:33:31;;;;;;;17.42;11.45;;;;;;;10.64;52.94;92623.81;4991487;28;20037;-77
2022/02/22 03:35:57;;;;;;;16.52;11.13;;;;;;;10.61;52.92;92618.44;4996131;28;20507;-78
2022/02/22 03:38:22;;;;;;;17.48;10.65;;;;;;;10.57;52.69;92617.53;5004572;28;20048;-77
2022/02/22 03:40:48;;;;;;;18.35;9.77;;;;;;;10.68;52.47;92624.69;5007664;28;20030;-78
2022/02/22 03:43:13;;;;;;;16.45;9.07;;;;;;;10.79;52.26;92608.22;4994842;28;20042;-80
2022/02/22 03:45:40;;;;;;;16.90;11.07;;;;;;;11.06;51.57;92628.63;5004370;28;20419;-78
2022/02/22 03:48:07;;;;;;;16.20;9.50;;;;;;;11.23;51.66;92622.19;4995523;28;20033;-77
2022/02/22 03:50:33;;;;;;;14.50;9.98;;;;;;;11.25;51.18;92617.31;5018867;28;20045;-77
2022/02/22 03:52:58;;;;;;;16.70;8.90;;;;;;;11.16;51.27;92620.13;5021365;28;20029;-77
2022/02/22 03:55:24;;;;;;;21.17;13.77;;;;;;;11.18;51.23;92632.00;5000459;28;20053;-79
2022/02/22 03:57:50;;;;;;;24.98;13.00;;;;;;;11.13;51.46;92634.91;5007206;28;20026;-77
2022/02/22 04:00:18;;;;;;;21.15;13.45;;;;;;;10.81;51.77;92612.06;5004517;28;20878;-78
2022/02/22 04:02:44;;;;;;;28.60;15.00;;;;;;;10.95;52.31;92647.03;5008329;28;20447;-78
2022/02/22 04:05:10;;;;;;;19.77;11.52;;;;;;;10.71;52.29;92608.03;5008133;28;20032;-77
2022/02/22 04:07:37;;;;;;;24.08;11.15;;;;;;;10.87;52.46;92642.63;5018722;28;20062;-79
2022/02/22 04:10:05;;;;;;;15.98;10.13;;;;;;;10.78;52.22;92633.25;5009470;28;20562;-77
2022/02/22 04:12:30;;;;;;;21.77;10.75;;;;;;;10.57;53.35;92625.50;5021498;28;20538;-77
2022/02/22 04:14:55;;;;;;;18.98;11.55;;;;;;;10.65;53.13;92625.38;5008275;28;20037;-78
2022/02/22 04:17:21;;;;;;;18.88;9.57;;;;;;;10.77;52.69;92631.72;4996030;28;20044;-77
2022/02/22 04:19:48;;;;;;;15.43;9.05;;;;;;;10.71;52.96;92620.56;5010347;28;20116;-79
2022/02/22 04:22:17;;;;;;;11.65;8.13;;;;;;;10.86;52.78;92646.38;4993623;28;20157;-78
2022/02/22 04:24:43;;;;;;;20.17;9.10;;;;;;;10.81;52.66;92648.56;5014661;28;20092;-77
2022/02/22 04:27:08;;;;;;;12.82;6.90;;;;;;;10.81;52.50;92659.19;5004825;28;20037;-79
2022/02/22 04:29:35;;;;;;;11.77;6.63;;;;;;;10.76;52.33;92660.19;5006239;28;20041;-79
2022/02/22 04:32:02;;;;;;;19.58;8.65;;;;;;;10.56;53.40;92669.19;5004007;28;20033;-77
2022/02/22 04:34:27;;;;;;;130.63;47.50;;;;;;;10.46;53.17;92643.88;5007318;28;20109;-77
2022/02/22 04:36:53;;;;;;;148.57;57.25;;;;;;;10.66;53.33;92668.69;5003387;28;21171;-78
2022/02/22 04:39:18;;;;;;;55.55;25.50;;;;;;;10.56;53.40;92671.84;5000304;28;20488;-78
2022/02/22 04:41:44;;;;;;;24.60;10.85;;;;;;;10.27;53.15;92673.69;5001058;28;20980;-78
2022/02/22 04:44:09;;;;;;;8.25;4.60;;;;;;;9.94;53.80;92680.31;5004330;28;20040;-78
2022/02/22 04:46:35;;;;;;;10.52;6.50;;;;;;;9.92;54.45;92690.53;5003567;28;20021;-77
2022/02/22 04:49:00;;;;;;;6.25;3.70;;;;;;;9.67;55.18;92687.91;5020916;28;20033;-77
2022/02/22 04:51:26;;;;;;;9.68;4.82;;;;;;;9.60;55.46;92681.59;5007069;28;20041;-78
2022/02/22 04:53:52;;;;;;;8.07;5.55;;;;;;;9.75;55.98;92699.50;4996790;28;20663;-78
2022/02/22 04:56:17;;;;;;;5.78;3.97;;;;;;;9.43;56.39;92707.28;5019953;28;20032;-76
2022/02/22 04:58:43;;;;;;;4.72;3.17;;;;;;;9.39;55.87;92671.88;5002774;28;20030;-77
2022/02/22 05:01:09;;;;;;;6.18;2.53;;;;;;;9.52;56.29;92707.16;5008009;28;20037;-77
2022/02/22 05:03:34;;;;;;;4.70;2.80;;;;;;;9.62;56.32;92717.31;4999903;28;20047;-77
2022/02/22 05:06:01;;;;;;;10.20;4.38;;;;;;;9.67;56.07;92724.28;5006555;28;20088;-76
2022/02/22 05:08:26;;;;;;;5.53;3.97;;;;;;;9.55;56.73;92726.94;5002187;28;20630;-77
2022/02/22 05:10:53;;;;;;;4.95;2.88;;;;;;;9.28;57.27;92736.34;5004250;28;20052;-77
2022/02/22 05:13:19;;;;;;;6.13;3.70;;;;;;;9.05;58.38;92735.19;5001951;28;20547;-77
2022/02/22 05:15:44;;;;;;;4.47;2.35;;;;;;;8.57;59.05;92713.50;5008682;28;20053;-76
2022/02/22 05:18:10;;;;;;;3.03;2.30;;;;;;;8.59;59.84;92719.25;5005736;28;20386;-77
2022/02/22 05:20:35;;;;;;;3.83;2.80;;;;;;;8.37;60.41;92738.13;5008548;28;20057;-78
2022/02/22 05:23:01;;;;;;;3.58;2.10;;;;;;;8.28;60.86;92713.59;5002722;28;20124;-77
2022/02/22 05:25:26;;;;;;;3.72;2.00;;;;;;;8.47;60.81;92715.78;5011434;28;20018;-78
2022/02/22 05:27:52;;;;;;;2.67;1.98;;;;;;;8.54;60.10;92716.81;4998415;28;20124;-77
2022/02/22 05:30:18;;;;;;;6.25;3.38;;;;;;;8.71;60.17;92725.69;5005963;28;20507;-77
2022/02/22 05:32:44;;;;;;;1.77;1.58;;;;;;;8.87;59.86;92722.09;4998621;28;20075;-77
2022/02/22 05:35:11;;;;;;;2.17;1.50;;;;;;;8.89;59.68;92719.91;5010501;28;20028;-77
2022/02/22 05:37:38;;;;;;;1.95;1.40;;;;;;;8.33;61.22;92673.66;5002349;28;20053;-78
2022/02/22 05:40:05;;;;;;;1.95;1.40;;;;;;;8.67;60.98;92704.34;5001287;28;20049;-79
2022/02/22 05:42:31;;;;;;;2.03;1.80;;;;;;;8.90;60.39;92702.13;5006986;28;20127;-77
2022/02/22 05:44:56;;;;;;;3.80;1.83;;;;;;;9.20;59.66;92722.06;5000501;28;20587;-78
2022/02/22 05:47:24;;;;;;;2.65;1.60;;;;;;;9.41;59.12;92728.06;5000642;28;20128;-77
2022/02/22 05:49:49;;;;;;;2.53;2.00;;;;;;;9.57;58.64;92730.03;5005510;28;20052;-77
2022/02/22 05:52:15;;;;;;;4.68;2.28;;;;;;;9.63;57.87;92729.50;4993354;28;20164;-78
2022/02/22 05:54:42;;;;;;;3.40;2.30;;;;;;;9.79;57.13;92732.22;5005730;28;20096;-78
2022/02/22 05:57:09;;;;;;;2.25;1.63;;;;;;;9.80;57.29;92739.09;4996679;28;20041;-78
2022/02/22 05:59:35;;;;;;;5.10;2.13;;;;;;;10.06;56.41;92736.84;5007433;28;20128;-77
2022/02/22 06:02:00;;;;;;;5.00;3.10;;;;;;;10.01;55.79;92707.09;5001200;28;20021;-78
2022/02/22 06:04:26;;;;;;;3.30;2.97;;;;;;;10.33;55.30;92741.44;5002902;28;20515;-77
2022/02/22 06:06:52;;;;;;;3.47;2.70;;;;;;;10.24;55.38;92743.44;5008436;28;20459;-78
2022/02/22 06:09:18;;;;;;;6.40;3.65;;;;;;;10.27;55.49;92745.44;5001621;28;20071;-77
2022/02/22 06:11:44;;;;;;;7.32;3.75;;;;;;;9.91;55.64;92713.66;5021027;28;20038;-79
2022/02/22 06:14:10;;;;;;;5.32;3.45;;;;;;;9.77;57.32;92739.78;4997108;28;20408;-76
2022/02/22 06:16:35;;;;;;;8.80;4.22;;;;;;;9.99;56.82;92752.56;5006296;28;20079;-78
2022/02/22 06:19:01;;;;;;;6.68;4.20;;;;;;;10.03;56.33;92729.53;5018393;28;20049;-78
2022/02/22 06:21:26;;;;;;;6.78;4.68;;;;;;;9.93;57.31;92743.28;5001132;28;20048;-79
2022/02/22 06:23:52;;;;;;;6.10;4.05;;;;;;;9.54;58.81;92723.50;5003623;28;20398;-79
2022/02/22 06:26:17;;;;;;;4.53;2.80;;;;;;;9.62;58.42;92729.81;5002126;28;20056;-77
2022/02/22 06:28:42;;;;;;;6.63;3.95;;;;;;;9.80;57.88;92744.41;4998098;28;20022;-77
2022/02/22 06:31:08;;;;;;;5.90;3.55;;;;;;;9.24;58.79;92722.94;5008678;28;20103;-78
2022/02/22 06:33:34;;;;;;;4.80;3.00;;;;;;;8.62;59.95;92643.59;5001166;28;20052;-79
2022/02/22 06:35:59;;;;;;;4.72;3.70;;;;;;;9.74;58.56;92743.06;5002531;28;20042;-77
2022/02/22 06:38:25;;;;;;;5.88;4.15;;;;;;;9.93;57.84;92748.59;4998171;28;20053;-77
2022/02/22 06:40:50;;;;;;;6.95;4.22;;;;;;;9.95;57.50;92724.34;5004043;28;20048;-77
2022/02/22 06:43:16;;;;;;;7.50;5.07;;;;;;;10.07;57.37;92742.94;5002988;28;20029;-77
2022/02/22 06:45:41;;;;;;;8.43;5.28;;;;;;;10.12;56.94;92743.47;5007893;28;20542;-77
2022/02/22 06:48:07;;;;;;;6.90;4.72;;;;;;;10.12;57.04;92735.50;5001857;28;20033;-77
2022/02/22 06:50:34;;;;;;;9.18;5.78;;;;;;;10.09;56.93;92720.25;5001415;28;21480;-78
2022/02/22 06:53:00;;;;;;;11.80;6.75;;;;;;;10.18;57.13;92736.03;5017086;28;20889;-78
2022/02/22 06:55:25;;;;;;;14.60;8.40;;;;;;;10.05;57.08;92708.75;5003321;28;20037;-79
2022/02/22 06:57:55;;;;;;;8.73;5.97;;;;;;;10.33;57.35;92738.00;5003015;28;20049;-78
2022/02/22 07:00:21;;;;;;;7.05;4.72;;;;;;;10.37;57.13;92740.81;5006327;28;20041;-77
2022/02/22 07:02:47;;;;;;;8.05;5.35;;;;;;;10.13;57.16;92741.59;4997980;28;20049;-77
2022/02/22 07:05:13;;;;;;;7.80;4.88;;;;;;;9.63;58.26;92728.72;5002006;28;20033;-78
2022/02/22 07:07:39;;;;;;;7.18;4.20;;;;;;;9.40;58.05;92654.06;5001387;28;20029;-77
2022/02/22 07:10:06;;;;;;;9.02;4.65;;;;;;;9.77;58.72;92731.81;5001844;28;20072;-78
2022/02/22 07:12:32;;;;;;;8.63;5.18;;;;;;;9.56;59.09;92702.72;5005234;28;20053;-79
2022/02/22 07:14:57;;;;;;;10.00;5.20;;;;;;;9.87;58.80;92718.84;4999704;28;20123;-77
2022/02/22 07:17:23;;;;;;;11.35;5.40;;;;;;;9.62;60.24;92737.78;5001666;28;20863;-78
2022/02/22 07:19:48;;;;;;;8.20;5.60;;;;;;;9.51;61.21;92737.44;5007233;28;20473;-77
2022/02/22 07:22:14;;;;;;;12.00;5.88;;;;;;;8.92;63.14;92737.78;5000530;28;20407;-79
2022/02/22 07:24:40;;;;;;;14.45;7.18;;;;;;;8.86;64.31;92754.22;4999589;28;21075;-77
2022/02/22 07:27:05;;;;;;;10.10;5.63;;;;;;;8.19;65.95;92731.44;5016186;28;20049;-77
2022/02/22 07:29:32;;;;;;;9.52;5.85;;;;;;;8.02;68.53;92752.78;4999512;28;20103;-77
2022/02/22 07:31:58;;;;;;;15.20;7.93;;;;;;;7.44;70.98;92738.41;5003211;28;20025;-78
2022/02/22 07:34:23;;;;;;;16.63;8.77;;;;;;;7.19;72.05;92742.72;5005481;28;20389;-79
2022/02/22 07:36:49;;;;;;;16.27;8.32;;;;;;;7.47;71.55;92732.50;5004335;28;20042;-77
2022/02/22 07:39:14;;;;;;;10.65;7.78;;;;;;;7.26;71.99;92763.41;5005673;28;20041;-79
2022/02/22 07:41:40;;;;;;;14.82;6.72;;;;;;;6.85;73.12;92738.34;5021665;28;20042;-77
2022/02/22 07:44:06;;;;;;;10.00;7.13;;;;;;;7.61;71.69;92746.28;5003465;28;20556;-78
2022/02/22 07:46:31;;;;;;;10.25;6.05;;;;;;;7.69;70.42;92734.09;5004916;28;20025;-77
2022/02/22 07:48:56;;;;;;;7.90;6.03;;;;;;;7.55;70.66;92744.91;5011415;28;20037;-77
2022/02/22 07:51:22;;;;;;;10.68;6.40;;;;;;;7.88;70.21;92749.56;5021307;28;20996;-77
2022/02/22 07:53:48;;;;;;;7.88;5.45;;;;;;;7.66;70.41;92772.56;5003735;28;20047;-77
2022/02/22 07:56:16;;;;;;;11.00;6.35;;;;;;;7.64;71.03;92758.88;5008778;28;20193;-76
2022/02/22 07:58:42;;;;;;;7.38;5.22;;;;;;;7.38;71.80;92757.44;5023523;28;20030;-77
2022/02/22 08:01:09;;;;;;;10.32;5.65;;;;;;;7.31;72.95;92760.59;5005394;28;20559;-77
2022/02/22 08:03:36;;;;;;;15.27;6.20;;;;;;;7.77;71.18;92766.94;5000524;28;20046;-77
2022/02/22 08:06:02;;;;;;;11.13;6.32;;;;;;;7.57;71.10;92757.81;4996065;28;20429;-77
2022/02/22 08:08:27;;;;;;;8.13;6.10;;;;;;;7.73;70.58;92743.75;5001358;28;20041;-77
2022/02/22 08:10:53;;;;;;;11.80;7.50;;;;;;;8.17;70.35;92749.53;4998403;28;20040;-78
2022/02/22 08:13:18;;;;;;;11.00;6.80;;;;;;;8.65;68.84;92749.00;5015575;28;20039;-78
2022/02/22 08:15:44;;;;;;;10.98;7.25;;;;;;;9.07;65.66;92757.59;5001532;28;20073;-77
2022/02/22 08:18:10;;;;;;;11.27;6.57;;;;;;;9.32;65.33;92755.78;5005228;28;20042;-79
2022/02/22 08:20:35;;;;;;;9.52;6.22;;;;;;;9.23;64.40;92747.16;5000371;28;20235;-77
2022/02/22 08:23:02;;;;;;;29.60;16.00;;;;;;;9.30;64.61;92766.72;5002917;28;20037;-77
2022/02/22 08:25:28;;;;;;;7.78;5.20;;;;;;;9.11;63.20;92755.88;5005175;28;20363;-78
2022/02/22 08:27:53;;;;;;;10.80;5.18;;;;;;;9.27;63.52;92772.69;4997320;28;20041;-77
2022/02/22 08:30:19;;;;;;;4.15;3.25;;;;;;;8.98;62.82;92770.97;5000686;28;20037;-78
2022/02/22 08:32:44;;;;;;;3.38;2.25;;;;;;;9.59;61.32;92770.28;5005175;28;20045;-79
2022/02/22 08:35:10;;;;;;;4.32;3.22;;;;;;;9.58;59.55;92747.53;5000661;28;20029;-78
2022/02/22 08:37:36;;;;;;;3.42;2.75;;;;;;;9.51;59.38;92781.78;4995781;28;20392;-77
2022/02/22 08:40:03;;;;;;;5.63;3.70;;;;;;;9.35;59.89;92777.13;4998251;28;20129;-77
2022/02/22 08:42:28;;;;;;;6.00;5.00;;;;;;;9.03;62.02;92781.34;5001570;28;20378;-77
2022/02/22 08:44:54;;;;;;;6.38;4.68;;;;;;;9.59;61.46;92780.91;4998810;28;20041;-78
2022/02/22 08:47:20;;;;;;;8.18;4.15;;;;;;;9.53;60.00;92784.91;5017865;28;20066;-78
2022/02/22 08:49:47;;;;;;;7.15;4.75;;;;;;;9.84;59.13;92785.91;5006286;28;20445;-78
2022/02/22 08:52:13;;;;;;;11.98;6.13;;;;;;;10.08;58.04;92784.31;5008146;28;20034;-76
2022/02/22 08:54:38;;;;;;;9.80;5.55;;;;;;;9.92;57.63;92740.97;5002541;28;20102;-78
2022/02/22 08:57:04;;;;;;;6.72;4.82;;;;;;;10.41;57.37;92798.25;5003075;28;20049;-78
2022/02/22 08:59:29;;;;;;;8.75;5.70;;;;;;;10.32;58.07;92798.34;5007267;28;20030;-77
2022/02/22 09:01:56;;;;;;;13.52;8.23;;;;;;;10.53;57.52;92797.44;5019679;28;20408;-76
2022/02/22 09:04:21;;;;;;;12.48;7.95;;;;;;;10.72;57.41;92802.91;4997967;28;20034;-77
2022/02/22 09:06:46;;;;;;;15.23;8.25;;;;;;;10.71;56.46;92809.34;5002857;28;20063;-77
2022/02/22 09:09:12;;;;;;;14.15;7.70;;;;;;;10.58;56.84;92815.81;4999893;28;20552;-78
2022/02/22 09:11:38;;;;;;;13.63;7.82;;;;;;;10.39;56.17;92812.97;5004486;28;20037;-77
2022/02/22 09:14:03;;;;;;;10.20;7.63;;;;;;;10.16;56.51;92802.81;4999399;28;20036;-79
2022/02/22 09:16:28;;;;;;;14.15;7.90;;;;;;;10.09;57.31;92802.59;5001193;28;20771;-78
2022/02/22 09:18:54;;;;;;;13.40;8.75;;;;;;;9.81;57.69;92791.09;5001561;28;20141;-78
2022/02/22 09:21:20;;;;;;;7.63;5.43;;;;;;;9.86;58.21;92838.69;4993024;28;20861;-78
2022/02/22 09:23:45;;;;;;;9.77;4.82;;;;;;;9.35;59.28;92814.28;4999524;28;20050;-79
2022/02/22 09:26:11;;;;;;;10.68;5.32;;;;;;;9.03;60.07;92830.97;5005108;28;20029;-77
2022/02/22 09:28:36;;;;;;;11.90;5.75;;;;;;;8.69;60.68;92849.81;4995982;28;20160;-77
2022/02/22 09:31:02;;;;;;;9.57;5.60;;;;;;;8.21;63.12;92851.09;5013987;28;20038;-78
2022/02/22 09:33:27;;;;;;;8.93;5.07;;;;;;;7.57;64.42;92827.41;4986683;28;20378;-80
2022/02/22 09:35:53;;;;;;;10.43;4.35;;;;;;;7.54;64.68;92870.34;5015504;28;20051;-78
2022/02/22 09:38:18;;;;;;;6.38;3.83;;;;;;;7.35;64.85;92854.06;4998874;28;20089;-77
2022/02/22 09:40:44;;;;;;;5.18;3.63;;;;;;;7.16;64.99;92843.06;5001743;28;20025;-78
2022/02/22 09:43:10;;;;;;;5.95;3.30;;;;;;;6.89;65.56;92860.06;4998383;28;20209;-77
2022/02/22 09:45:35;;;;;;;5.45;3.40;;;;;;;6.71;65.98;92858.50;5000444;28;20037;-77
2022/02/22 09:48:04;;;;;;;6.03;3.97;;;;;;;6.93;66.14;92889.28;5005340;28;20795;-78
2022/02/22 09:50:30;;;;;;;6.85;3.22;;;;;;;6.73;66.48;92896.75;5001876;28;20033;-77
2022/02/22 09:52:56;;;;;;;6.38;3.40;;;;;;;6.79;66.57;92898.16;4998157;28;20064;-77
2022/02/22 09:55:22;;;;;;;6.38;3.25;;;;;;;6.52;65.74;92874.66;5002400;28;20120;-76
2022/02/22 09:57:48;;;;;;;6.28;3.42;;;;;;;6.65;66.72;92897.50;4993235;28;20045;-78
2022/02/22 10:00:23;;;;;;;5.45;2.95;;;;;;;6.53;66.92;92909.78;5000726;28;20048;-78
2022/02/22 10:02:49;;;;;;;5.32;3.25;;;;;;;6.49;67.38;92909.63;5001278;28;20076;-77
2022/02/22 10:05:16;;;;;;;7.15;3.35;;;;;;;6.18;66.52;92856.16;4998045;28;20037;-77
2022/02/22 10:07:50;;;;;;;4.70;2.92;;;;;;;6.15;66.71;92915.59;5002786;28;20041;-76
2022/02/22 10:10:16;;;;;;;4.20;2.00;;;;;;;5.99;66.44;92925.78;5014117;28;20045;-77
2022/02/22 10:12:42;;;;;;;2.45;1.77;;;;;;;5.42;66.76;92871.41;5018738;28;20593;-77
2022/02/22 10:15:09;;;;;;;5.70;2.20;;;;;;;5.40;67.34;92919.16;4999270;28;20064;-78
2022/02/22 10:17:41;;;;;;;2.97;1.50;;;;;;;5.10;67.67;92933.06;5007965;28;20570;-78
2022/02/22 10:20:09;;;;;;;3.78;1.88;;;;;;;4.87;69.48;92940.19;5005100;28;20462;-77
2022/02/22 10:22:56;;;;;;;2.95;2.15;;;;;;;5.03;69.79;92940.63;5007968;28;20488;-78
2022/02/22 10:25:23;;;;;;;2.33;1.60;;;;;;;5.04;69.96;92937.69;5002526;28;20279;-78
2022/02/22 10:28:00;;;;;;;1.70;1.60;;;;;;;4.91;68.24;92935.88;5004321;28;20030;-78
2022/02/22 10:30:39;;;;;;;3.58;1.60;;;;;;;4.76;68.40;92946.75;4999699;28;20442;-77
2022/02/22 10:33:19;;;;;;;1.88;1.52;;;;;;;4.41;68.70;92937.78;5002767;28;20397;-79
2022/02/22 10:35:48;;;;;;;1.80;1.50;;;;;;;4.20;69.68;92932.13;4997396;28;20052;-79
2022/02/22 10:38:26;;;;;;;2.22;1.50;;;;;;;4.35;69.60;92965.28;5002765;28;20803;-79
2022/02/22 10:40:55;;;;;;;4.20;2.20;;;;;;;4.30;69.24;92959.34;4995277;28;20048;-78
2022/02/22 10:43:27;;;;;;;3.97;1.60;;;;;;;4.35;68.90;92962.66;5001891;28;20098;-76
2022/02/22 10:45:54;;;;;;;2.13;1.52;;;;;;;4.27;68.76;92958.81;5000844;28;20045;-77
2022/02/22 10:48:32;;;;;;;2.22;2.03;;;;;;;4.33;69.14;92962.16;5001530;28;20111;-77
2022/02/22 10:50:58;;;;;;;1.70;1.40;;;;;;;4.24;69.56;92964.69;4996352;28;20040;-77
2022/02/22 10:53:31;;;;;;;2.15;1.80;;;;;;;4.28;69.27;92970.13;4997332;28;20037;-77
2022/02/22 10:55:58;;;;;;;2.03;1.42;;;;;;;4.21;69.15;92961.84;4996242;28;20262;-76
2022/02/22 10:58:25;;;;;;;2.95;1.77;;;;;;;4.27;68.86;92974.63;5003017;28;20095;-77
2022/02/22 11:00:51;;;;;;;2.00;1.73;;;;;;;4.07;68.89;92951.31;5001295;28;20216;-77
2022/02/22 11:03:17;;;;;;;2.20;1.50;;;;;;;3.82;69.46;92933.41;5004238;28;20033;-76
2022/02/22 11:05:42;;;;;;;1.73;1.60;;;;;;;4.10;69.86;92960.50;5009364;28;20061;-78
2022/02/22 11:08:07;;;;;;;2.58;1.88;;;;;;;4.12;69.88;92959.13;5005699;28;20037;-79
2022/02/22 11:10:36;;;;;;;3.17;1.63;;;;;;;4.26;69.23;92962.53;4992201;28;20024;-78
2022/02/22 11:13:01;;;;;;;1.60;1.38;;;;;;;4.12;69.40;92940.69;4998913;28;20116;-77
2022/02/22 11:15:40;;;;;;;2.15;1.75;;;;;;;4.36;69.82;92969.47;4989883;28;20044;-76
2022/02/22 11:18:18;;;;;;;2.92;2.08;;;;;;;4.18;68.19;92954.53;5012764;28;20038;-78
2022/02/22 11:20:46;;;;;;;2.65;1.88;;;;;;;4.21;68.90;92954.72;4999346;28;20187;-77
2022/02/22 11:23:22;;;;;;;2.45;1.77;;;;;;;4.10;69.48;92955.25;4999768;28;21004;-75
2022/02/22 11:25:49;;;;;;;1.95;1.85;;;;;;;4.13;69.65;92963.31;5003649;28;20050;-77
2022/02/22 11:28:15;;;;;;;1.58;1.48;;;;;;;4.07;69.77;92955.81;5000625;28;20125;-77